createdAt,value
2023-04-09T00:00:59.172Z,30.17
2023-04-09T00:01:59.216Z,30.20
2023-04-09T00:02:59.337Z,30.20
2023-04-09T00:03:59.404Z,30.23
2023-04-09T00:04:59.235Z,30.16
2023-04-09T00:05:59.261Z,30.22
2023-04-09T00:06:59.284Z,30.20
2023-04-09T00:08:00.103Z,30.19
2023-04-09T00:08:59.309Z,30.14
2023-04-09T00:09:59.313Z,30.23
2023-04-09T00:10:59.324Z,30.20
2023-04-09T00:11:59.339Z,30.23
2023-04-09T00:12:59.365Z,30.28
2023-04-09T00:13:59.380Z,30.19
2023-04-09T00:14:59.452Z,30.25
2023-04-09T00:15:59.424Z,30.22
2023-04-09T00:16:59.408Z,30.25
2023-04-09T00:17:59.685Z,30.22
2023-04-09T00:18:59.442Z,30.25
2023-04-09T00:19:59.451Z,30.23
2023-04-09T00:20:59.470Z,30.24
2023-04-09T00:21:59.483Z,30.23
2023-04-09T00:22:59.497Z,30.23
2023-04-09T00:23:59.510Z,30.23
2023-04-09T00:24:59.539Z,30.26
2023-04-09T00:25:59.540Z,30.28
2023-04-09T00:26:59.567Z,30.23
2023-04-09T00:27:59.587Z,30.25
2023-04-09T00:28:59.598Z,30.25
2023-04-09T00:29:59.615Z,30.29
2023-04-09T00:30:59.629Z,30.22
2023-04-09T00:31:59.695Z,30.25
2023-04-09T00:32:59.694Z,30.25
2023-04-09T00:33:59.680Z,30.23
2023-04-09T00:34:59.699Z,30.25
2023-04-09T00:35:59.745Z,30.29
2023-04-09T00:36:59.732Z,30.29
2023-04-09T00:37:59.741Z,30.23
2023-04-09T00:38:59.763Z,30.23
2023-04-09T00:39:59.773Z,30.28
2023-04-09T00:40:59.789Z,30.29
2023-04-09T00:41:59.791Z,30.20
2023-04-09T00:42:59.806Z,30.23
2023-04-09T00:43:59.805Z,30.26
2023-04-09T00:45:00.151Z,30.32
2023-04-09T00:45:59.895Z,30.25
2023-04-09T00:46:59.953Z,30.26
2023-04-09T00:47:59.976Z,30.26
2023-04-09T00:48:59.875Z,30.28
2023-04-09T00:49:59.889Z,30.31
2023-04-09T00:50:59.897Z,30.25
2023-04-09T00:51:59.896Z,30.23
2023-04-09T00:52:59.940Z,30.26
2023-04-09T00:53:59.922Z,30.26
2023-04-09T00:54:59.950Z,30.25
2023-04-09T00:55:59.948Z,30.26
2023-04-09T00:56:59.963Z,30.26
2023-04-09T00:57:59.973Z,30.29
2023-04-09T00:58:59.993Z,30.28
2023-04-09T01:00:00.627Z,30.31
2023-04-09T01:01:00.084Z,30.29
2023-04-09T01:02:00.081Z,30.25
2023-04-09T01:03:00.094Z,30.28
2023-04-09T01:04:00.134Z,30.28
2023-04-09T01:05:00.116Z,30.29
2023-04-09T01:06:00.091Z,30.31
2023-04-09T01:07:00.116Z,30.35
2023-04-09T01:08:00.154Z,30.31
2023-04-09T01:09:00.159Z,30.29
2023-04-09T01:10:00.178Z,30.28
2023-04-09T01:11:00.181Z,30.31
2023-04-09T01:12:00.171Z,30.34
2023-04-09T01:13:00.268Z,30.28
2023-04-09T01:14:00.203Z,30.31
2023-04-09T01:15:00.220Z,30.28
2023-04-09T01:16:00.357Z,30.29
2023-04-09T01:17:00.257Z,30.31
2023-04-09T01:18:00.335Z,30.29
2023-04-09T01:19:00.281Z,30.31
2023-04-09T01:20:00.345Z,30.28
2023-04-09T01:21:00.301Z,30.32
2023-04-09T01:22:00.321Z,30.29
2023-04-09T01:23:00.342Z,30.32
2023-04-09T01:24:00.361Z,30.28
2023-04-09T01:25:00.371Z,30.28
2023-04-09T01:26:00.388Z,30.25
2023-04-09T01:27:00.402Z,30.28
2023-04-09T01:28:00.431Z,30.26
2023-04-09T01:29:00.451Z,30.31
2023-04-09T01:30:00.601Z,30.26
2023-04-09T01:31:00.544Z,30.26
2023-04-09T01:32:00.591Z,30.24
2023-04-09T01:33:00.494Z,30.28
2023-04-09T01:34:00.512Z,30.28
2023-04-09T01:35:00.518Z,30.26
2023-04-09T01:36:00.552Z,30.25
2023-04-09T01:37:00.541Z,30.19
2023-04-09T01:38:00.552Z,30.25
2023-04-09T01:39:00.565Z,30.20
2023-04-09T01:40:00.584Z,30.25
2023-04-09T01:41:00.596Z,30.20
2023-04-09T01:42:00.638Z,30.20
2023-04-09T01:43:00.626Z,30.17
2023-04-09T01:44:00.637Z,30.22
2023-04-09T01:45:00.777Z,30.19
2023-04-09T01:46:00.733Z,30.16
2023-04-09T01:47:00.667Z,30.19
2023-04-09T01:48:00.762Z,30.22
2023-04-09T01:49:00.688Z,30.13
2023-04-09T01:50:00.702Z,30.16
2023-04-09T01:51:00.720Z,30.10
2023-04-09T01:52:00.724Z,30.16
2023-04-09T01:53:00.738Z,30.16
2023-04-09T01:54:00.766Z,30.12
2023-04-09T01:55:00.767Z,30.10
2023-04-09T01:56:00.754Z,30.13
2023-04-09T01:57:00.763Z,30.09
2023-04-09T01:58:00.781Z,30.12
2023-04-09T01:59:00.802Z,30.10
2023-04-09T02:00:01.081Z,30.09
2023-04-09T02:01:01.628Z,30.10
2023-04-09T02:02:00.876Z,30.07
2023-04-09T02:03:00.944Z,30.06
2023-04-09T02:04:00.903Z,30.02
2023-04-09T02:05:00.866Z,30.05
2023-04-09T02:06:00.895Z,30.08
2023-04-09T02:07:00.906Z,30.13
2023-04-09T02:08:00.910Z,30.07
2023-04-09T02:09:00.926Z,30.05
2023-04-09T02:10:00.952Z,30.07
2023-04-09T02:11:00.946Z,30.04
2023-04-09T02:12:00.969Z,30.04
2023-04-09T02:13:00.984Z,30.04
2023-04-09T02:14:01.003Z,30.07
2023-04-09T02:15:01.213Z,30.04
2023-04-09T02:16:01.081Z,30.07
2023-04-09T02:17:01.049Z,30.10
2023-04-09T02:18:01.151Z,30.01
2023-04-09T02:19:01.087Z,30.07
2023-04-09T02:20:01.140Z,30.07
2023-04-09T02:21:01.208Z,30.02
2023-04-09T02:22:01.116Z,30.07
2023-04-09T02:23:01.143Z,30.07
2023-04-09T02:24:01.158Z,30.08
2023-04-09T02:25:01.184Z,30.05
2023-04-09T02:26:01.193Z,30.08
2023-04-09T02:27:01.215Z,30.05
2023-04-09T02:28:01.235Z,30.12
2023-04-09T02:29:01.251Z,30.05
2023-04-09T02:30:01.503Z,30.11
2023-04-09T02:31:01.337Z,30.05
2023-04-09T02:32:01.316Z,30.07
2023-04-09T02:33:01.354Z,30.11
2023-04-09T02:34:01.348Z,30.07
2023-04-09T02:35:01.358Z,30.13
2023-04-09T02:36:01.438Z,30.10
2023-04-09T02:37:01.391Z,30.11
2023-04-09T02:38:01.413Z,30.02
2023-04-09T02:39:01.425Z,30.07
2023-04-09T02:40:01.450Z,30.07
2023-04-09T02:41:01.527Z,30.07
2023-04-09T02:42:01.486Z,30.04
2023-04-09T02:43:01.478Z,30.10
2023-04-09T02:44:01.503Z,30.09
2023-04-09T02:45:01.524Z,30.05
2023-04-09T02:46:01.568Z,30.04
2023-04-09T02:47:01.552Z,30.08
2023-04-09T02:48:01.562Z,30.07
2023-04-09T02:49:01.580Z,29.99
2023-04-09T02:50:01.612Z,30.00
2023-04-09T02:51:01.627Z,30.02
2023-04-09T02:52:01.641Z,30.04
2023-04-09T02:53:04.587Z,30.02
2023-04-09T02:54:01.678Z,30.05
2023-04-09T02:55:01.603Z,30.05
2023-04-09T02:56:01.569Z,30.05
2023-04-09T02:57:01.534Z,30.02
2023-04-09T02:58:01.491Z,30.02
2023-04-09T02:59:01.456Z,30.07
2023-04-09T03:00:01.420Z,29.96
2023-04-09T03:01:01.384Z,29.97
2023-04-09T03:02:01.475Z,30.00
2023-04-09T03:03:01.538Z,30.04
2023-04-09T03:04:01.324Z,29.99
2023-04-09T03:05:01.235Z,30.00
2023-04-09T03:06:01.197Z,29.99
2023-04-09T03:07:01.149Z,30.00
2023-04-09T03:08:01.119Z,29.95
2023-04-09T03:09:01.153Z,29.94
2023-04-09T03:10:01.042Z,29.96
2023-04-09T03:11:01.018Z,29.92
2023-04-09T03:12:00.957Z,29.94
2023-04-09T03:13:00.923Z,29.95
2023-04-09T03:14:00.876Z,29.93
2023-04-09T03:15:01.223Z,29.95
2023-04-09T03:16:00.834Z,29.92
2023-04-09T03:17:00.771Z,29.93
2023-04-09T03:18:00.816Z,29.92
2023-04-09T03:19:00.681Z,29.90
2023-04-09T03:20:00.635Z,29.90
2023-04-09T03:21:00.599Z,29.86
2023-04-09T03:22:00.588Z,29.92
2023-04-09T03:23:00.534Z,29.85
2023-04-09T03:24:00.511Z,29.80
2023-04-09T03:25:00.467Z,29.86
2023-04-09T03:26:00.430Z,29.89
2023-04-09T03:27:00.399Z,29.82
2023-04-09T03:28:00.358Z,29.78
2023-04-09T03:29:00.311Z,29.85
2023-04-09T03:30:00.278Z,29.83
2023-04-09T03:31:00.283Z,29.85
2023-04-09T03:32:00.208Z,29.83
2023-04-09T03:33:00.215Z,29.77
2023-04-09T03:34:00.238Z,29.76
2023-04-09T03:35:00.139Z,29.77
2023-04-09T03:36:00.118Z,29.79
2023-04-09T03:37:00.038Z,29.77
2023-04-09T03:38:00.049Z,29.80
2023-04-09T03:39:00.122Z,29.74
2023-04-09T03:39:59.928Z,29.83
2023-04-09T03:40:59.892Z,29.82
2023-04-09T03:41:59.876Z,29.74
2023-04-09T03:42:59.888Z,29.80
2023-04-09T03:43:59.951Z,29.80
2023-04-09T03:44:59.890Z,29.83
2023-04-09T03:45:59.912Z,29.77
2023-04-09T03:46:59.977Z,29.77
2023-04-09T03:47:59.931Z,29.78
2023-04-09T03:48:59.940Z,29.75
2023-04-09T03:49:59.953Z,29.78
2023-04-09T03:50:59.966Z,29.74
2023-04-09T03:51:59.973Z,29.82
2023-04-09T03:52:59.987Z,29.81
2023-04-09T03:53:59.995Z,29.78
2023-04-09T03:55:00.004Z,29.80
2023-04-09T03:56:00.004Z,29.78
2023-04-09T03:57:00.042Z,29.77
2023-04-09T03:58:00.052Z,29.75
2023-04-09T03:59:00.048Z,29.78
2023-04-09T04:00:00.597Z,29.82
2023-04-09T04:01:00.065Z,29.78
2023-04-09T04:02:00.655Z,29.77
2023-04-09T04:03:00.296Z,29.77
2023-04-09T04:04:00.167Z,29.74
2023-04-09T04:05:00.156Z,29.75
2023-04-09T04:06:00.141Z,29.75
2023-04-09T04:07:00.189Z,29.77
2023-04-09T04:08:00.169Z,29.80
2023-04-09T04:09:00.186Z,29.75
2023-04-09T04:10:00.209Z,29.75
2023-04-09T04:11:00.228Z,29.80
2023-04-09T04:12:00.261Z,29.81
2023-04-09T04:13:00.295Z,29.81
2023-04-09T04:14:00.598Z,29.74
2023-04-09T04:15:00.304Z,29.77
2023-04-09T04:16:00.359Z,29.77
2023-04-09T04:17:00.326Z,29.80
2023-04-09T04:18:00.342Z,29.75
2023-04-09T04:19:00.357Z,29.77
2023-04-09T04:20:00.381Z,29.83
2023-04-09T04:21:00.399Z,29.81
2023-04-09T04:22:00.432Z,29.80
2023-04-09T04:23:00.432Z,29.80
2023-04-09T04:24:00.518Z,29.80
2023-04-09T04:25:00.482Z,29.77
2023-04-09T04:26:00.492Z,29.84
2023-04-09T04:27:00.505Z,29.81
2023-04-09T04:28:00.527Z,29.81
2023-04-09T04:29:00.553Z,29.78
2023-04-09T04:30:00.579Z,29.82
2023-04-09T04:31:00.601Z,29.75
2023-04-09T04:32:00.745Z,29.78
2023-04-09T04:33:00.664Z,29.77
2023-04-09T04:34:00.665Z,29.81
2023-04-09T04:35:00.680Z,29.78
2023-04-09T04:36:00.708Z,29.77
2023-04-09T04:37:00.734Z,29.80
2023-04-09T04:38:00.750Z,29.78
2023-04-09T04:39:00.772Z,29.74
2023-04-09T04:40:00.775Z,29.77
2023-04-09T04:41:00.789Z,29.77
2023-04-09T04:42:00.809Z,29.77
2023-04-09T04:43:00.836Z,29.75
2023-04-09T04:44:00.880Z,29.75
2023-04-09T04:45:01.077Z,29.74
2023-04-09T04:46:00.889Z,29.74
2023-04-09T04:47:00.884Z,29.71
2023-04-09T04:48:00.929Z,29.75
2023-04-09T04:49:01.098Z,29.78
2023-04-09T04:50:00.928Z,29.72
2023-04-09T04:51:00.936Z,29.74
2023-04-09T04:52:00.940Z,29.68
2023-04-09T04:53:00.968Z,29.65
2023-04-09T04:54:00.958Z,29.69
2023-04-09T04:55:00.960Z,29.71
2023-04-09T04:56:00.973Z,29.68
2023-04-09T04:57:00.982Z,29.66
2023-04-09T04:58:00.990Z,29.71
2023-04-09T04:59:01.006Z,29.68
2023-04-09T05:00:01.160Z,29.60
2023-04-09T05:01:01.069Z,29.65
2023-04-09T05:02:01.119Z,29.69
2023-04-09T05:03:01.175Z,29.71
2023-04-09T05:04:01.074Z,29.68
2023-04-09T05:05:01.125Z,29.71
2023-04-09T05:06:01.085Z,29.68
2023-04-09T05:07:01.113Z,29.60
2023-04-09T05:08:01.167Z,29.63
2023-04-09T05:09:01.138Z,29.65
2023-04-09T05:10:01.151Z,29.63
2023-04-09T05:11:01.154Z,29.66
2023-04-09T05:12:01.172Z,29.68
2023-04-09T05:13:01.168Z,29.70
2023-04-09T05:14:01.187Z,29.62
2023-04-09T05:15:01.197Z,29.65
2023-04-09T05:16:01.209Z,29.65
2023-04-09T05:17:01.299Z,29.66
2023-04-09T05:18:01.294Z,29.68
2023-04-09T05:19:01.253Z,29.63
2023-04-09T05:20:01.280Z,29.65
2023-04-09T05:21:01.261Z,29.65
2023-04-09T05:22:01.278Z,29.63
2023-04-09T05:23:01.289Z,29.60
2023-04-09T05:24:01.318Z,29.62
2023-04-09T05:25:01.338Z,29.60
2023-04-09T05:26:01.329Z,29.62
2023-04-09T05:27:01.325Z,29.65
2023-04-09T05:28:01.335Z,29.63
2023-04-09T05:29:01.351Z,29.66
2023-04-09T05:30:02.084Z,29.62
2023-04-09T05:31:01.390Z,29.61
2023-04-09T05:32:01.397Z,29.62
2023-04-09T05:33:01.406Z,29.60
2023-04-09T05:34:01.396Z,29.63
2023-04-09T05:35:01.418Z,29.62
2023-04-09T05:36:01.455Z,29.63
2023-04-09T05:37:01.429Z,29.56
2023-04-09T05:38:01.460Z,29.59
2023-04-09T05:39:01.465Z,29.61
2023-04-09T05:40:01.459Z,29.62
2023-04-09T05:41:01.479Z,29.59
2023-04-09T05:42:01.512Z,29.59
2023-04-09T05:43:01.515Z,29.62
2023-04-09T05:44:01.513Z,29.60
2023-04-09T05:45:01.517Z,29.57
2023-04-09T05:46:01.585Z,29.62
2023-04-09T05:47:01.540Z,29.66
2023-04-09T05:48:01.610Z,29.60
2023-04-09T05:49:01.573Z,29.63
2023-04-09T05:50:01.582Z,29.63
2023-04-09T05:51:01.593Z,29.60
2023-04-09T05:52:01.627Z,29.54
2023-04-09T05:53:02.507Z,29.56
2023-04-09T05:54:01.658Z,29.57
2023-04-09T05:55:01.735Z,29.59
2023-04-09T05:56:01.658Z,29.59
2023-04-09T05:57:01.692Z,29.62
2023-04-09T05:58:01.696Z,29.59
2023-04-09T05:59:01.717Z,29.63
2023-04-09T06:00:01.728Z,29.62
2023-04-09T06:01:01.733Z,29.60
2023-04-09T06:02:01.775Z,29.63
2023-04-09T06:03:01.862Z,29.63
2023-04-09T06:04:02.196Z,29.57
2023-04-09T06:05:02.607Z,29.65
2023-04-09T06:06:01.816Z,29.62
2023-04-09T06:07:01.850Z,29.63
2023-04-09T06:08:01.844Z,29.63
2023-04-09T06:09:01.843Z,29.57
2023-04-09T06:10:01.928Z,29.62
2023-04-09T06:11:01.866Z,29.60
2023-04-09T06:12:01.878Z,29.57
2023-04-09T06:13:01.914Z,29.59
2023-04-09T06:14:01.929Z,29.61
2023-04-09T06:15:01.995Z,29.65
2023-04-09T06:16:01.968Z,29.61
2023-04-09T06:17:01.960Z,29.60
2023-04-09T06:18:02.029Z,29.59
2023-04-09T06:19:01.990Z,29.59
2023-04-09T06:20:02.134Z,29.62
2023-04-09T06:21:02.027Z,29.53
2023-04-09T06:22:02.585Z,29.57
2023-04-09T06:23:02.136Z,29.56
2023-04-09T06:24:02.053Z,29.57
2023-04-09T06:25:02.077Z,29.54
2023-04-09T06:26:02.086Z,29.50
2023-04-09T06:27:02.084Z,29.53
2023-04-09T06:28:02.113Z,29.54
2023-04-09T06:29:02.131Z,29.53
2023-04-09T06:30:02.135Z,29.59
2023-04-09T06:31:02.160Z,29.59
2023-04-09T06:32:02.133Z,29.51
2023-04-09T06:33:02.226Z,29.51
2023-04-09T06:34:02.149Z,29.56
2023-04-09T06:35:02.221Z,29.48
2023-04-09T06:36:02.198Z,29.57
2023-04-09T06:37:02.164Z,29.52
2023-04-09T06:38:02.179Z,29.48
2023-04-09T06:39:02.226Z,29.52
2023-04-09T06:40:02.194Z,29.50
2023-04-09T06:41:02.208Z,29.53
2023-04-09T06:42:02.205Z,29.53
2023-04-09T06:43:02.215Z,29.54
2023-04-09T06:44:02.224Z,29.50
2023-04-09T06:45:02.223Z,29.56
2023-04-09T06:46:02.265Z,29.47
2023-04-09T06:47:02.375Z,29.54
2023-04-09T06:48:02.293Z,29.56
2023-04-09T06:49:02.264Z,29.51
2023-04-09T06:50:02.303Z,29.51
2023-04-09T06:51:02.292Z,29.56
2023-04-09T06:52:02.285Z,29.56
2023-04-09T06:53:02.327Z,29.57
2023-04-09T06:54:02.317Z,29.54
2023-04-09T06:55:02.343Z,29.54
2023-04-09T06:56:02.335Z,29.56
2023-04-09T06:57:02.361Z,29.51
2023-04-09T06:58:02.366Z,29.48
2023-04-09T06:59:02.385Z,29.50
2023-04-09T07:00:02.400Z,29.53
2023-04-09T07:01:02.405Z,29.53
2023-04-09T07:02:02.530Z,29.57
2023-04-09T07:03:02.786Z,29.51
2023-04-09T07:04:02.593Z,29.53
2023-04-09T07:05:02.612Z,29.50
2023-04-09T07:06:02.453Z,29.51
2023-04-09T07:07:02.465Z,29.54
2023-04-09T07:08:02.498Z,29.51
2023-04-09T07:09:02.497Z,29.51
2023-04-09T07:10:02.512Z,29.51
2023-04-09T07:11:02.527Z,29.53
2023-04-09T07:12:02.554Z,29.51
2023-04-09T07:13:02.554Z,29.57
2023-04-09T07:14:02.573Z,29.53
2023-04-09T07:15:02.588Z,29.59
2023-04-09T07:16:02.694Z,29.57
2023-04-09T07:17:02.665Z,29.57
2023-04-09T07:18:02.676Z,29.53
2023-04-09T07:19:02.642Z,29.57
2023-04-09T07:20:02.641Z,29.54
2023-04-09T07:21:03.386Z,29.57
2023-04-09T07:22:02.675Z,29.51
2023-04-09T07:23:02.698Z,29.54
2023-04-09T07:24:02.671Z,29.56
2023-04-09T07:25:02.691Z,29.54
2023-04-09T07:26:02.714Z,29.57
2023-04-09T07:27:02.729Z,29.56
2023-04-09T07:28:02.755Z,29.51
2023-04-09T07:29:02.760Z,29.54
2023-04-09T07:30:02.769Z,29.57
2023-04-09T07:31:02.840Z,29.57
2023-04-09T07:32:02.795Z,29.54
2023-04-09T07:33:02.847Z,29.50
2023-04-09T07:34:02.817Z,29.56
2023-04-09T07:35:02.845Z,29.53
2023-04-09T07:36:02.871Z,29.57
2023-04-09T07:37:02.852Z,29.50
2023-04-09T07:38:02.852Z,29.56
2023-04-09T07:39:02.860Z,29.56
2023-04-09T07:40:02.887Z,29.59
2023-04-09T07:41:02.890Z,29.53
2023-04-09T07:42:02.897Z,29.56
2023-04-09T07:43:02.900Z,29.53
2023-04-09T07:44:02.918Z,29.51
2023-04-09T07:45:02.910Z,29.50
2023-04-09T07:46:02.941Z,29.50
2023-04-09T07:47:02.999Z,29.48
2023-04-09T07:48:02.965Z,29.50
2023-04-09T07:49:02.950Z,29.48
2023-04-09T07:50:02.936Z,29.45
2023-04-09T07:51:03.139Z,29.50
2023-04-09T07:52:02.942Z,29.48
2023-04-09T07:53:03.004Z,29.50
2023-04-09T07:54:02.955Z,29.50
2023-04-09T07:55:02.959Z,29.47
2023-04-09T07:56:02.953Z,29.46
2023-04-09T07:57:03.006Z,29.46
2023-04-09T07:58:02.948Z,29.39
2023-04-09T07:59:02.950Z,29.46
2023-04-09T08:00:03.006Z,29.41
2023-04-09T08:01:02.960Z,29.43
2023-04-09T08:02:03.038Z,29.41
2023-04-09T08:03:03.051Z,29.44
2023-04-09T08:04:03.122Z,29.40
2023-04-09T08:05:02.975Z,29.44
2023-04-09T08:06:02.964Z,29.43
2023-04-09T08:07:02.980Z,29.39
2023-04-09T08:08:02.970Z,29.41
2023-04-09T08:09:02.975Z,29.43
2023-04-09T08:10:02.962Z,29.43
2023-04-09T08:11:02.987Z,29.44
2023-04-09T08:12:02.975Z,29.41
2023-04-09T08:13:02.977Z,29.38
2023-04-09T08:14:03.007Z,29.41
2023-04-09T08:15:02.994Z,29.44
2023-04-09T08:16:02.996Z,29.43
2023-04-09T08:17:02.972Z,29.43
2023-04-09T08:18:03.081Z,29.44
2023-04-09T08:19:02.990Z,29.38
2023-04-09T08:20:03.010Z,29.41
2023-04-09T08:21:02.998Z,29.41
2023-04-09T08:22:02.998Z,29.47
2023-04-09T08:23:03.011Z,29.40
2023-04-09T08:24:03.009Z,29.38
2023-04-09T08:25:03.122Z,29.39
2023-04-09T08:26:03.028Z,29.42
2023-04-09T08:27:03.024Z,29.49
2023-04-09T08:28:03.020Z,29.47
2023-04-09T08:29:03.016Z,29.48
2023-04-09T08:30:03.034Z,29.49
2023-04-09T08:31:03.038Z,29.47
2023-04-09T08:32:03.121Z,29.49
2023-04-09T08:33:03.078Z,29.45
2023-04-09T08:34:03.085Z,29.48
2023-04-09T08:35:03.110Z,29.47
2023-04-09T08:36:03.507Z,29.52
2023-04-09T08:37:03.103Z,29.50
2023-04-09T08:38:03.116Z,29.45
2023-04-09T08:39:03.197Z,29.47
2023-04-09T08:40:03.141Z,29.50
2023-04-09T08:41:03.153Z,29.45
2023-04-09T08:42:03.213Z,29.44
2023-04-09T08:43:03.163Z,29.57
2023-04-09T08:44:03.179Z,29.52
2023-04-09T08:45:03.186Z,29.53
2023-04-09T08:46:03.238Z,29.49
2023-04-09T08:47:03.188Z,29.55
2023-04-09T08:48:03.331Z,29.55
2023-04-09T08:49:03.229Z,29.59
2023-04-09T08:50:03.208Z,29.55
2023-04-09T08:51:03.238Z,29.56
2023-04-09T08:52:03.456Z,29.58
2023-04-09T08:53:03.212Z,29.50
2023-04-09T08:54:04.477Z,29.53
2023-04-09T08:55:03.382Z,29.56
2023-04-09T08:56:03.228Z,29.58
2023-04-09T08:57:03.226Z,29.61
2023-04-09T08:58:03.217Z,29.55
2023-04-09T08:59:03.225Z,29.55
2023-04-09T09:00:03.227Z,29.58
2023-04-09T09:01:03.266Z,29.59
2023-04-09T09:02:03.381Z,29.56
2023-04-09T09:03:03.389Z,29.58
2023-04-09T09:04:03.286Z,29.59
2023-04-09T09:05:03.258Z,29.62
2023-04-09T09:06:03.256Z,29.59
2023-04-09T09:07:03.256Z,29.62
2023-04-09T09:08:03.325Z,29.64
2023-04-09T09:09:03.282Z,29.64
2023-04-09T09:10:03.297Z,29.62
2023-04-09T09:11:03.305Z,29.65
2023-04-09T09:12:03.279Z,29.67
2023-04-09T09:13:03.285Z,29.70
2023-04-09T09:14:03.280Z,29.66
2023-04-09T09:15:03.297Z,29.69
2023-04-09T09:16:03.285Z,29.69
2023-04-09T09:17:03.306Z,29.71
2023-04-09T09:18:03.385Z,29.67
2023-04-09T09:19:03.300Z,29.70
2023-04-09T09:20:03.305Z,29.70
2023-04-09T09:21:03.293Z,29.67
2023-04-09T09:22:03.323Z,29.69
2023-04-09T09:23:03.299Z,29.69
2023-04-09T09:24:03.295Z,29.71
2023-04-09T09:25:03.302Z,29.71
2023-04-09T09:26:03.293Z,29.73
2023-04-09T09:27:04.062Z,29.71
2023-04-09T09:28:03.299Z,29.64
2023-04-09T09:29:03.303Z,29.70
2023-04-09T09:30:03.294Z,29.75
2023-04-09T09:31:03.312Z,29.73
2023-04-09T09:32:03.288Z,29.71
2023-04-09T09:33:03.287Z,29.69
2023-04-09T09:34:03.290Z,29.73
2023-04-09T09:35:03.307Z,29.72
2023-04-09T09:36:03.379Z,29.70
2023-04-09T09:37:03.280Z,29.70
2023-04-09T09:38:03.317Z,29.70
2023-04-09T09:39:03.280Z,29.75
2023-04-09T09:40:03.290Z,29.72
2023-04-09T09:41:03.284Z,29.75
2023-04-09T09:42:03.291Z,29.64
2023-04-09T09:43:03.341Z,29.73
2023-04-09T09:44:03.279Z,29.69
2023-04-09T09:45:03.281Z,29.72
2023-04-09T09:46:03.332Z,29.67
2023-04-09T09:47:03.289Z,29.72
2023-04-09T09:48:03.319Z,29.72
2023-04-09T09:49:03.273Z,29.72
2023-04-09T09:50:03.274Z,29.75
2023-04-09T09:51:03.254Z,29.72
2023-04-09T09:52:04.112Z,29.70
2023-04-09T09:53:03.246Z,29.67
2023-04-09T09:54:03.257Z,29.69
2023-04-09T09:55:03.253Z,29.73
2023-04-09T09:56:03.246Z,29.69
2023-04-09T09:57:03.253Z,29.73
2023-04-09T09:58:03.273Z,29.72
2023-04-09T09:59:03.247Z,29.69
2023-04-09T10:00:03.249Z,29.63
2023-04-09T10:01:03.290Z,29.72
2023-04-09T10:02:03.403Z,29.73
2023-04-09T10:03:03.312Z,29.69
2023-04-09T10:04:03.315Z,29.67
2023-04-09T10:05:03.240Z,29.67
2023-04-09T10:06:03.234Z,29.70
2023-04-09T10:07:03.241Z,29.71
2023-04-09T10:08:03.227Z,29.69
2023-04-09T10:09:03.212Z,29.67
2023-04-09T10:10:03.220Z,29.72
2023-04-09T10:11:03.225Z,29.68
2023-04-09T10:12:03.201Z,29.69
2023-04-09T10:13:03.194Z,29.69
2023-04-09T10:14:03.190Z,29.73
2023-04-09T10:15:03.196Z,29.66
2023-04-09T10:16:03.254Z,29.75
2023-04-09T10:17:03.296Z,29.69
2023-04-09T10:18:03.268Z,29.73
2023-04-09T10:19:03.209Z,29.69
2023-04-09T10:20:03.194Z,29.70
2023-04-09T10:21:03.208Z,29.75
2023-04-09T10:22:03.176Z,29.72
2023-04-09T10:23:04.070Z,29.75
2023-04-09T10:24:03.163Z,29.72
2023-04-09T10:25:03.195Z,29.70
2023-04-09T10:26:03.168Z,29.70
2023-04-09T10:27:03.174Z,29.74
2023-04-09T10:28:03.172Z,29.64
2023-04-09T10:29:03.188Z,29.72
2023-04-09T10:30:03.173Z,29.71
2023-04-09T10:31:03.216Z,29.72
2023-04-09T10:32:03.162Z,29.70
2023-04-09T10:33:03.283Z,29.69
2023-04-09T10:34:03.176Z,29.66
2023-04-09T10:35:03.184Z,29.70
2023-04-09T10:36:03.222Z,29.71
2023-04-09T10:37:03.152Z,29.67
2023-04-09T10:38:03.164Z,29.72
2023-04-09T10:39:03.157Z,29.67
2023-04-09T10:40:03.208Z,29.72
2023-04-09T10:41:03.228Z,29.72
2023-04-09T10:42:03.150Z,29.72
2023-04-09T10:43:03.139Z,29.67
2023-04-09T10:44:03.163Z,29.69
2023-04-09T10:45:03.231Z,29.64
2023-04-09T10:46:03.223Z,29.72
2023-04-09T10:47:03.138Z,29.70
2023-04-09T10:48:03.177Z,29.69
2023-04-09T10:49:03.149Z,29.70
2023-04-09T10:50:03.156Z,29.69
2023-04-09T10:51:03.152Z,29.67
2023-04-09T10:52:03.142Z,29.64
2023-04-09T10:53:03.138Z,29.70
2023-04-09T10:54:03.149Z,29.75
2023-04-09T10:55:03.141Z,29.62
2023-04-09T10:56:03.143Z,29.64
2023-04-09T10:57:03.150Z,29.70
2023-04-09T10:58:03.149Z,29.66
2023-04-09T10:59:03.155Z,29.61
2023-04-09T11:00:03.151Z,29.63
2023-04-09T11:01:03.577Z,29.63
2023-04-09T11:02:03.225Z,29.63
2023-04-09T11:03:03.288Z,29.63
2023-04-09T11:04:03.156Z,29.64
2023-04-09T11:05:03.248Z,29.66
2023-04-09T11:06:03.159Z,29.64
2023-04-09T11:07:03.167Z,29.61
2023-04-09T11:08:03.167Z,29.61
2023-04-09T11:09:03.162Z,29.60
2023-04-09T11:10:03.179Z,29.63
2023-04-09T11:11:03.172Z,29.63
2023-04-09T11:12:03.172Z,29.58
2023-04-09T11:13:03.234Z,29.54
2023-04-09T11:14:03.199Z,29.61
2023-04-09T11:15:03.179Z,29.59
2023-04-09T11:16:03.215Z,29.61
2023-04-09T11:17:03.188Z,29.60
2023-04-09T11:18:03.293Z,29.55
2023-04-09T11:19:03.197Z,29.55
2023-04-09T11:20:03.212Z,29.56
2023-04-09T11:21:03.213Z,29.55
2023-04-09T11:22:03.214Z,29.57
2023-04-09T11:23:03.227Z,29.58
2023-04-09T11:24:03.240Z,29.57
2023-04-09T11:25:03.246Z,29.57
2023-04-09T11:26:03.266Z,29.55
2023-04-09T11:27:03.282Z,29.57
2023-04-09T11:28:03.257Z,29.57
2023-04-09T11:29:03.266Z,29.58
2023-04-09T11:30:03.244Z,29.55
2023-04-09T11:31:03.402Z,29.52
2023-04-09T11:32:03.311Z,29.57
2023-04-09T11:33:03.371Z,29.55
2023-04-09T11:34:03.233Z,29.55
2023-04-09T11:35:03.226Z,29.52
2023-04-09T11:36:03.294Z,29.55
2023-04-09T11:37:03.230Z,29.52
2023-04-09T11:38:03.240Z,29.55
2023-04-09T11:39:03.244Z,29.51
2023-04-09T11:40:03.244Z,29.55
2023-04-09T11:41:03.242Z,29.50
2023-04-09T11:42:03.240Z,29.49
2023-04-09T11:43:03.240Z,29.54
2023-04-09T11:44:03.246Z,29.48
2023-04-09T11:45:03.245Z,29.53
2023-04-09T11:46:03.254Z,29.52
2023-04-09T11:47:03.403Z,29.50
2023-04-09T11:48:03.359Z,29.54
2023-04-09T11:49:03.313Z,29.52
2023-04-09T11:50:03.318Z,29.52
2023-04-09T11:51:03.264Z,29.52
2023-04-09T11:52:03.267Z,29.50
2023-04-09T11:53:03.264Z,29.50
2023-04-09T11:54:03.282Z,29.50
2023-04-09T11:55:03.303Z,29.46
2023-04-09T11:56:03.289Z,29.54
2023-04-09T11:57:03.275Z,29.52
2023-04-09T11:58:03.323Z,29.50
2023-04-09T11:59:03.292Z,29.49
2023-04-09T12:00:05.315Z,29.52
2023-04-09T12:01:03.283Z,29.48
2023-04-09T12:02:03.353Z,29.48
2023-04-09T12:03:03.673Z,29.55
2023-04-09T12:04:03.402Z,29.49
2023-04-09T12:05:03.403Z,29.51
2023-04-09T12:06:03.441Z,29.52
2023-04-09T12:07:04.064Z,29.52
2023-04-09T12:08:04.072Z,29.51
2023-04-09T12:09:04.062Z,29.52
2023-04-09T12:10:03.265Z,29.50
2023-04-09T12:11:03.284Z,29.54
2023-04-09T12:12:03.281Z,29.48
2023-04-09T12:13:03.312Z,29.51
2023-04-09T12:14:03.288Z,29.46
2023-04-09T12:15:03.281Z,29.51
2023-04-09T12:16:03.323Z,29.51
2023-04-09T12:17:03.488Z,29.49
2023-04-09T12:18:03.345Z,29.54
2023-04-09T12:19:03.317Z,29.43
2023-04-09T12:20:03.287Z,29.49
2023-04-09T12:21:03.289Z,29.50
2023-04-09T12:22:03.287Z,29.48
2023-04-09T12:23:03.335Z,29.51
2023-04-09T12:24:03.301Z,29.50
2023-04-09T12:25:03.314Z,29.46
2023-04-09T12:26:03.321Z,29.49
2023-04-09T12:27:03.360Z,29.52
2023-04-09T12:28:03.334Z,29.54
2023-04-09T12:29:03.332Z,29.51
2023-04-09T12:30:03.336Z,29.48
2023-04-09T12:31:03.412Z,29.48
2023-04-09T12:32:03.403Z,29.55
2023-04-09T12:33:03.422Z,29.46
2023-04-09T12:34:03.346Z,29.49
2023-04-09T12:35:03.345Z,29.49
2023-04-09T12:36:03.383Z,29.46
2023-04-09T12:37:03.332Z,29.45
2023-04-09T12:38:03.353Z,29.49
2023-04-09T12:39:03.335Z,29.51
2023-04-09T12:40:03.365Z,29.48
2023-04-09T12:41:03.345Z,29.49
2023-04-09T12:42:03.334Z,29.49
2023-04-09T12:43:03.366Z,29.51
2023-04-09T12:44:03.325Z,29.43
2023-04-09T12:45:03.328Z,29.46
2023-04-09T12:46:03.383Z,29.49
2023-04-09T12:47:03.311Z,29.42
2023-04-09T12:48:03.397Z,29.48
2023-04-09T12:49:03.305Z,29.48
2023-04-09T12:50:03.312Z,29.43
2023-04-09T12:51:03.310Z,29.46
2023-04-09T12:52:03.352Z,29.43
2023-04-09T12:53:03.277Z,29.37